Latest Coastal Weather Observations for Ballina

IDN60701

Issued at 5:21 am EDT Friday 24 March 2017 (issued every 10 minutes, with the page automatically refreshed every 10 minutes)

About coastal observations | Map of coastal stations | Coastal observations for NSW | Marine services | Other Formats
Station Details ID: 058198 Name: BALLINA AIRPORT AWS Lat: -28.84 Lon: 153.56 Height: 1.3 m
Data from the previous 72 hours. | See also: Recent months at Ballina
Date/Time
EDT
Temp
°C
Wind Pressure Rain since
9am
mm
Weather Cloud Vis
km
Sea
Height
m
Swell
Dir  Spd
kts
Gust
kts
hPa Trend Height
m
Period
s
Dir
24/05:00am 21.9 W 3 4 1015.1 - 3.0 - Cloudy 10 - - - -
24/04:30am 21.7 W 3 4 1014.9 - 3.0 - Cloudy 10 - - - -
24/04:08am 21.2 W 4 4 1014.9 - 3.0 - Partly cloudy 10 - - - -
24/04:00am 21.1 W 3 4 1015.0 - 3.0 - Partly cloudy 10 - - - -
24/03:30am 21.4 WNW 4 5 1015.1 - 3.0 - - 10 - - - -
24/03:00am 21.3 WNW 4 5 1015.3 - 3.0 - Mostly clear 10 - - - -
24/02:30am 21.3 WNW 3 4 1015.7 - 3.0 - - 10 - - - -
24/02:00am 21.5 W 3 4 1016.1 - 3.0 - - 10 - - - -
24/01:30am 21.7 W 1 3 1016.4 - 3.0 - - 10 - - - -
24/01:00am 21.5 W 2 3 1016.4 - 3.0 - - 10 - - - -
24/12:30am 21.3 WSW 5 6 1016.5 - 3.0 - - 10 - - - -
24/12:00am 21.3 WSW 4 6 1016.6 - 3.0 - Cloudy 10 - - - -
 
Date/Time
EDT
Temp
°C
Wind Pressure Rain since
9am
mm
Weather Cloud Vis
km
Sea
Height
m
Swell
Dir  Spd
kts
Gust
kts
hPa Trend Height
m
Period
s
Dir
23/11:30pm 21.0 CALM 0 0 1016.7 - 3.0 - - 10 - - - -
23/11:00pm 20.8 CALM 0 0 1016.9 - 3.0 - - 10 - - - -
23/10:30pm 20.9 CALM 0 0 1016.9 - 3.0 - - 10 - - - -
23/10:00pm 21.1 CALM 0 0 1017.1 - 3.0 - - 10 - - - -
23/09:30pm 21.5 CALM 0 0 1017.0 - 3.0 - - 10 - - - -
23/09:00pm 21.4 NNW 2 4 1016.8 - 3.0 - Mostly cloudy 10 - - - -
23/08:30pm 21.4 NW 5 7 1016.4 - 3.0 - Partly cloudy 10 - - - -
23/08:00pm 21.2 NW 4 5 1016.4 - 3.0 - Partly cloudy 10 - - - -
23/07:30pm 21.4 N 5 6 1016.2 - 3.0 - Partly cloudy 10 - - - -
23/07:00pm 21.7 N 6 8 1016.2 - 2.8 - Partly cloudy 10 - - - -
23/06:30pm 22.0 N 7 9 1016.2 - 2.8 - Partly cloudy 10 - - - -
23/06:00pm 23.0 NNE 5 7 1016.1 - 2.8 Recent precip. Cloudy 10 - - - -
23/05:30pm 23.6 ENE 7 9 1015.8 - 2.8 - Partly cloudy 10 - - - -
23/05:00pm 24.1 ENE 6 7 1015.6 - 2.6 - Partly cloudy 10 - - - -
23/04:30pm 24.7 E 7 10 1015.5 - 2.6 - Partly cloudy 10 - - - -
23/04:00pm 25.5 SSE 12 17 1015.2 - 2.6 - Partly cloudy 10 - - - -
23/03:30pm 25.5 S 11 17 1015.1 - 2.6 - Partly cloudy 10 - - - -
23/03:00pm 25.8 SSE 10 13 1015.2 - 2.6 Recent precip. Cloudy 10 - - - -
23/02:43pm 24.8 S 8 11 1015.3 - 2.6 - Partly cloudy 9 - - - -
23/02:30pm 25.0 S 8 12 1015.4 - 2.4 - Partly cloudy 5 - - - -
23/02:23pm 25.3 SSW 9 14 1015.4 - 2.0 - Partly cloudy 5 - - - -
23/02:00pm 26.7 NE 5 7 1015.3 - 1.2 - Partly cloudy 10 - - - -
23/01:30pm 25.5 NNE 7 9 1015.6 - 1.2 - Partly cloudy 10 - - - -
23/01:28pm 25.6 NNE 7 9 1015.6 - 1.2 - Partly cloudy 10 - - - -
23/01:12pm 25.4 NE 9 12 1015.8 - 1.2 - Partly cloudy 5 - - - -
23/01:00pm 26.4 NE 10 13 1015.8 - 0.0 - Partly cloudy 10 - - - -
23/12:30pm 27.8 ENE 12 14 1015.9 - 0.0 - Partly cloudy 10 - - - -
23/12:00pm 27.8 NNW 6 9 1016.2 - 0.0 - Partly cloudy 10 - - - -
23/11:30am 29.2 N 7 11 1016.4 - 0.0 - Partly cloudy 10 - - - -
23/11:00am 28.3 NNE 8 11 1016.6 - 0.0 - Partly cloudy 10 - - - -
23/10:30am 27.2 NNW 9 14 1016.8 - 0.0 - Partly cloudy 10 - - - -
23/10:00am 27.8 NNW 7 11 1016.5 - 0.0 - Partly cloudy 10 - - - -
23/09:30am 27.1 N 6 9 1016.3 - 0.0 - Partly cloudy 10 - - - -
23/09:00am 26.3 N 8 11 1016.1 - 0.2 - Cloudy 10 - - - -
23/08:30am 24.9 N 4 7 1015.6 - 0.2 - - 10 - - - -
23/08:00am 23.0 NNE 3 4 1015.5 - 0.2 - - 10 - - - -
23/07:30am 21.6 CALM 0 0 1015.3 - 0.2 - - 10 - - - -
23/07:00am 22.3 NNE 1 4 1015.1 - 0.2 - - 10 - - - -
23/06:30am 22.4 NNE 2 4 1014.9 - 0.2 - - 10 - - - -
23/06:00am 22.3 NNE 3 4 1014.7 - 0.2 - Mostly cloudy 10 - - - -
23/05:30am 22.4 NNE 3 4 1014.5 - 0.2 - - 10 - - - -
23/05:00am 22.6 CALM 0 0 1014.3 - 0.2 - Partly cloudy 10 - - - -
23/04:30am 22.1 CALM 0 0 1014.2 - 0.2 - - 10 - - - -
23/04:00am 22.9 CALM 0 0 1014.4 - 0.2 - - 10 - - - -
23/03:30am 23.1 CALM 0 0 1014.6 - 0.2 - - 10 - - - -
23/03:00am 23.3 NW 3 3 1014.8 - 0.2 - Cloudy 10 - - - -
23/02:30am 23.5 CALM 0 0 1014.9 - 0.2 - - 10 - - - -
23/02:00am 23.6 NNE 4 5 1015.1 - 0.2 - - 10 - - - -
23/01:30am 23.8 NNE 3 3 1015.4 - 0.2 - - 10 - - - -
23/01:00am 23.8 NNE 3 4 1015.5 - 0.2 - - 10 - - - -
23/12:30am 23.8 NNE 4 6 1015.5 - 0.2 - - 10 - - - -
23/12:00am 23.8 N 4 5 1015.7 - 0.2 - Cloudy 10 - - - -
 
Date/Time
EDT
Temp
°C
Wind Pressure Rain since
9am
mm
Weather Cloud Vis
km
Sea
Height
m
Swell
Dir  Spd
kts
Gust
kts
hPa Trend Height
m
Period
s
Dir
22/11:30pm 23.9 NNE 5 6 1015.7 - 0.2 - - 10 - - - -
22/11:00pm 23.9 NNE 5 6 1015.9 - 0.2 - - 10 - - - -
22/10:30pm 24.0 NNE 3 5 1016.0 - 0.2 - - 10 - - - -
22/10:00pm 24.0 NNE 3 4 1015.9 - 0.2 - - 10 - - - -
22/09:30pm 24.2 N 4 5 1015.8 - 0.2 - - 10 - - - -
22/09:00pm 24.1 NNE 4 6 1015.4 - 0.2 - Mostly cloudy 10 - - - -
22/08:30pm 24.1 NNE 5 6 1015.2 - 0.2 - Partly cloudy 10 - - - -
22/08:00pm 24.3 NNE 5 7 1014.9 - 0.2 - Cloudy 10 - - - -
22/07:30pm 24.5 N 5 7 1014.8 - 0.2 - - 10 - - - -
22/07:00pm 24.8 NNE 4 6 1014.5 - 0.2 - - 10 - - - -
22/06:30pm 25.4 N 5 7 1014.4 - 0.2 - - 10 - - - -
22/06:00pm 26.1 N 9 12 1014.1 - 0.2 - Cloudy 10 - - - -
22/05:30pm 26.4 NNE 7 9 1014.3 - 0.2 - Partly cloudy 10 - - - -
22/05:00pm 26.9 N 8 12 1014.2 - 0.2 - Partly cloudy 10 - - - -
22/04:30pm 27.4 N 8 12 1014.1 - 0.2 - Partly cloudy 10 - - - -
22/04:00pm 27.7 NNE 10 16 1014.1 - 0.2 - Partly cloudy 10 - - - -
22/03:30pm 27.3 NE 14 18 1014.1 - 0.2 - Partly cloudy 10 - - - -
22/03:00pm 28.4 NNE 10 14 1014.3 - 0.2 - Cloudy 10 - - - -
22/02:30pm 28.1 N 10 14 1014.5 - 0.2 - Partly cloudy 10 - - - -
22/02:00pm 27.8 N 10 14 1014.7 - 0.2 - Partly cloudy 10 - - - -
22/01:30pm 27.2 N 7 10 1015.1 - 0.2 - Partly cloudy 10 - - - -
22/01:00pm 27.1 NNE 9 14 1015.5 - 0.0 - Partly cloudy 10 - - - -
22/12:30pm 27.9 N 10 16 1015.8 - 0.0 - Partly cloudy 10 - - - -
22/12:00pm 28.1 NNE 11 15 1016.0 - 0.0 - Mostly cloudy 10 - - - -
22/11:30am 27.8 NNE 9 13 1016.2 - 0.0 - Partly cloudy 10 - - - -
22/11:00am 28.0 N 12 16 1016.3 - 0.0 - Partly cloudy 10 - - - -
22/10:30am 27.5 N 10 15 1016.4 - 0.0 - Partly cloudy 10 - - - -
22/10:00am 26.3 N 6 9 1016.7 - 0.0 - Partly cloudy 10 - - - -
22/09:30am 25.7 N 5 7 1016.7 - 0.0 - Partly cloudy 10 - - - -
22/09:00am 24.8 N 3 5 1016.6 - 0.0 - Cloudy 10 - - - -
22/08:30am 23.9 NNW 4 6 1016.6 - 0.0 - Partly cloudy 10 - - - -
22/08:22am 24.0 NNW 4 6 1016.5 - 0.0 - Partly cloudy 10 - - - -
22/08:04am 23.8 N 5 9 1016.3 - 0.0 - Partly cloudy 5 - - - -
22/08:00am 23.7 NNW 2 6 1016.3 - 0.0 - Partly cloudy 9 - - - -
22/07:30am 23.5 NNW 3 4 1016.0 - 0.0 - Partly cloudy 10 - - - -
22/07:00am 23.3 NNW 3 5 1015.9 - 0.0 - Partly cloudy 10 - - - -
22/06:30am 23.3 NNW 4 5 1015.7 - 0.0 - Partly cloudy 10 - - - -
22/06:00am 23.1 NW 4 6 1015.5 - 0.0 - Cloudy 10 - - - -
22/05:30am 22.7 CALM 0 0 1015.4 - 0.0 - Partly cloudy 10 - - - -
22/05:00am 22.8 NNW 3 4 1015.3 - 0.0 - Partly cloudy 10 - - - -
22/04:30am 23.2 N 4 6 1015.1 - 0.0 - Partly cloudy 10 - - - -
22/04:00am 23.2 NNW 5 7 1015.2 - 0.0 - Partly cloudy 10 - - - -
22/03:30am 23.3 NNW 7 9 1015.5 - 0.0 - Partly cloudy 10 - - - -
22/03:00am 23.2 N 2 4 1015.7 - 0.0 - Cloudy 10 - - - -
22/02:30am 23.1 NNE 4 5 1015.7 - 0.0 - Partly cloudy 10 - - - -
22/02:00am 23.5 N 3 4 1016.2 - 0.0 - - 10 - - - -
22/01:30am 23.8 N 4 5 1016.4 - 0.0 - Partly cloudy 10 - - - -
22/01:16am 24.1 N 5 7 1016.6 - 0.0 - Partly cloudy 10 - - - -
22/01:02am 24.2 N 5 8 1016.6 - 0.0 - Partly cloudy 10 - - - -
22/01:00am 24.2 N 5 7 1016.6 - 0.0 - Partly cloudy 10 - - - -
22/12:30am 24.4 N 5 7 1016.6 - 0.0 - Partly cloudy 10 - - - -
22/12:00am 24.5 NNE 6 9 1016.8 - 0.0 - Cloudy 10 - - - -
 
Date/Time
EDT
Temp
°C
Wind Pressure Rain since
9am
mm
Weather Cloud Vis
km
Sea
Height
m
Swell
Dir  Spd
kts
Gust
kts
hPa Trend Height
m
Period
s
Dir
21/11:30pm 24.6 NNE 7 10 1016.9 - 0.0 - - 10 - - - -
21/11:00pm 24.7 NNE 8 12 1016.9 - 0.0 - Partly cloudy 10 - - - -
21/10:30pm 24.5 NNE 6 9 1017.0 - 0.0 - Partly cloudy 10 - - - -
21/10:00pm 24.6 NNE 7 9 1017.1 - 0.0 - - 10 - - - -
21/09:30pm 24.8 NNE 7 10 1017.1 - 0.0 - Partly cloudy 10 - - - -
21/09:00pm 24.7 NE 9 13 1016.9 - 0.0 - Cloudy 10 - - - -
21/08:30pm 24.9 NNE 9 11 1016.6 - 0.0 - Partly cloudy 10 - - - -
21/08:00pm 24.8 NNE 6 9 1016.2 - 0.0 - - 10 - - - -
21/07:30pm 24.9 NNE 7 10 1015.9 - 0.0 - - 10 - - - -
21/07:00pm 25.1 NNE 7 10 1015.7 - 0.0 - Partly cloudy 10 - - - -
21/06:30pm 25.4 NE 7 11 1015.6 - 0.0 - Partly cloudy 10 - - - -
21/06:00pm 25.6 NE 9 12 1015.5 - 0.0 - Cloudy 10 - - - -
21/05:30pm 26.0 NNE 7 11 1015.6 - 0.0 - - 10 - - - -
21/05:00pm 26.1 NNE 9 13 1015.7 - 0.0 - Partly cloudy 10 - - - -
21/04:30pm 26.4 NE 9 14 1015.8 - 0.0 - Partly cloudy 10 - - - -
21/04:00pm 26.4 NE 10 15 1015.9 - 0.0 - - 10 - - - -
21/03:30pm 26.6 NE 12 17 1016.0 - 0.0 - - 10 - - - -
21/03:00pm 27.0 NE 12 17 1016.1 - 0.0 - Mostly clear 10 - - - -
21/02:30pm 26.9 NNE 12 17 1016.5 - 0.0 - Partly cloudy 10 - - - -
21/02:00pm 27.0 NE 12 17 1016.8 - 0.0 - Partly cloudy 10 - - - -
21/01:30pm 28.0 NE 13 19 1017.0 - 0.0 - Partly cloudy 10 - - - -
21/01:00pm 27.9 NE 13 19 1017.3 - 0.0 - Partly cloudy 10 - - - -
21/12:30pm 27.2 NE 12 17 1017.6 - 0.0 - Cloudy 10 - - - -
21/12:00pm 26.9 NE 12 17 1017.8 - 0.0 - Mostly cloudy 10 - - - -
21/11:30am 27.4 NE 12 17 1018.0 - 0.0 - Partly cloudy 10 - - - -
21/11:00am 26.5 NE 10 13 1018.1 - 0.0 - Partly cloudy 10 - - - -
21/10:30am 26.2 NNE 9 13 1018.1 - 0.0 - Partly cloudy 10 - - - -
21/10:00am 26.1 NE 9 12 1018.2 - 0.0 - Partly cloudy 10 - - - -
21/09:30am 25.8 NE 9 13 1018.1 - 0.0 - Partly cloudy 10 - - - -
21/09:00am 25.4 NE 10 12 1017.9 - 0.2 - Cloudy 10 - - - -
21/08:30am 25.1 NE 8 13 1017.7 - 0.2 - Partly cloudy 10 - - - -
21/08:00am 24.8 NE 8 12 1017.3 - 0.2 - Partly cloudy 10 - - - -
21/07:30am 24.7 NE 9 12 1017.3 - 0.2 - Partly cloudy 10 - - - -
21/07:00am 24.5 NE 8 11 1017.0 - 0.2 - Cloudy 10 - - - -
21/06:30am 24.5 NE 10 12 1016.6 - 0.2 - Partly cloudy 10 - - - -
21/06:00am 24.4 NE 9 13 1016.8 - 0.2 - Cloudy 10 - - - -
21/05:30am 24.5 NE 10 13 1016.5 - 0.2 - Partly cloudy 10 - - - -

Other Formats:

Comma delimited format used in spreadsheet applications
http://www.bom.gov.au/fwo/IDN60701/IDN60701.94596.axf

JavaScript Object Notation format (JSON) in row-major order
http://www.bom.gov.au/fwo/IDN60701/IDN60701.94596.json